Time;durP1;ratioP1;P1;durP2;ratioP2;P2;SDS_P1;SDS_P2;PMS_P1;PMS_P2;Temp;Humidity;BMP_temperature;BMP_pressure;BME280_temperature;BME280_humidity;BME280_pressure;Samples;Min_cycle;Max_cycle;Signal;HPM_P1;HPM_P2
2022/06/27 00:01:29;;;;;;;7.57;6.80;;;;;;;;;;5010227;28;20033;-78
2022/06/27 00:03:55;;;;;;;7.70;6.28;;;;;;;;;;5010311;28;20341;-77
2022/06/27 00:06:22;;;;;;;7.50;6.47;;;;;;;;;;5003319;28;20424;-78
2022/06/27 00:08:48;;;;;;;7.47;6.50;;;;;;;;;;4991870;28;20056;-78
2022/06/27 00:11:15;;;;;;;7.50;6.00;;;;;;;;;;4994598;28;20484;-78
2022/06/27 00:13:41;;;;;;;7.18;6.35;;;;;;;;;;5002326;28;20145;-78
2022/06/27 00:16:07;;;;;;;7.60;6.55;;;;;;;;;;4991846;28;20121;-77
2022/06/27 00:18:33;;;;;;;8.23;7.10;;;;;;;;;;4990073;28;20121;-78
2022/06/27 00:20:59;;;;;;;8.20;6.53;;;;;;;;;;4993084;28;20030;-77
2022/06/27 00:23:25;;;;;;;7.80;6.95;;;;;;;;;;4996749;28;20022;-78
2022/06/27 00:25:51;;;;;;;7.82;6.40;;;;;;;;;;5011333;28;20021;-77
2022/06/27 00:28:17;;;;;;;7.68;6.60;;;;;;;;;;5011223;28;20022;-78
2022/06/27 00:30:43;;;;;;;8.23;7.10;;;;;;;;;;4999634;28;20077;-78
2022/06/27 00:33:09;;;;;;;9.23;7.25;;;;;;;;;;5009852;28;20030;-78
2022/06/27 00:35:35;;;;;;;8.38;6.53;;;;;;;;;;5011145;28;20045;-78
2022/06/27 00:38:01;;;;;;;7.28;6.32;;;;;;;;;;5011301;28;20038;-77
2022/06/27 00:40:27;;;;;;;8.07;6.90;;;;;;;;;;5009657;28;20030;-78
2022/06/27 00:42:54;;;;;;;8.88;7.18;;;;;;;;;;5004386;28;20022;-78
2022/06/27 00:45:20;;;;;;;8.20;6.85;;;;;;;;;;4994904;28;20081;-78
2022/06/27 00:47:46;;;;;;;7.72;6.45;;;;;;;;;;5005234;28;20026;-77
2022/06/27 00:50:12;;;;;;;7.75;6.60;;;;;;;;;;5010930;28;20029;-78
2022/06/27 00:52:38;;;;;;;8.02;7.22;;;;;;;;;;5009115;28;20116;-78
2022/06/27 00:55:05;;;;;;;7.70;6.90;;;;;;;;;;5008028;28;20404;-77
2022/06/27 00:57:32;;;;;;;8.27;6.95;;;;;;;;;;5011089;28;20104;-78
2022/06/27 00:59:58;;;;;;;7.60;6.80;;;;;;;;;;5010990;28;20510;-78
2022/06/27 01:02:24;;;;;;;9.23;6.07;;;;;;;;;;5011033;28;20476;-76
2022/06/27 01:04:50;;;;;;;8.35;7.45;;;;;;;;;;5005222;28;20404;-78
2022/06/27 01:07:16;;;;;;;8.10;7.05;;;;;;;;;;5014229;28;20468;-79
2022/06/27 01:09:43;;;;;;;7.68;6.88;;;;;;;;;;4995924;28;20022;-79
2022/06/27 01:12:09;;;;;;;8.85;7.28;;;;;;;;;;4992595;28;20015;-78
2022/06/27 01:14:35;;;;;;;8.05;6.95;;;;;;;;;;4996981;28;20034;-77
2022/06/27 01:17:02;;;;;;;8.15;6.75;;;;;;;;;;4993936;28;20369;-77
2022/06/27 01:19:28;;;;;;;8.60;7.10;;;;;;;;;;4994715;28;20034;-77
2022/06/27 01:21:55;;;;;;;8.52;6.57;;;;;;;;;;4993540;28;20029;-78
2022/06/27 01:24:22;;;;;;;9.13;7.05;;;;;;;;;;5002007;28;20080;-78
2022/06/27 01:26:48;;;;;;;7.50;6.47;;;;;;;;;;5001129;28;20101;-78
2022/06/27 01:29:14;;;;;;;8.45;7.18;;;;;;;;;;4994399;28;20077;-77
2022/06/27 01:31:40;;;;;;;8.50;6.72;;;;;;;;;;4993938;28;20022;-78
2022/06/27 01:34:07;;;;;;;19.35;7.35;;;;;;;;;;4999491;28;20130;-78
2022/06/27 01:36:43;;;;;;;8.57;7.55;;;;;;;;;;4993237;28;20480;-78
2022/06/27 01:39:15;;;;;;;8.02;7.15;;;;;;;;;;4994232;28;20030;-78
2022/06/27 01:41:43;;;;;;;8.57;7.43;;;;;;;;;;4988714;28;20015;-78
2022/06/27 01:44:10;;;;;;;8.18;7.05;;;;;;;;;;5001452;28;20022;-78
2022/06/27 01:46:47;;;;;;;10.48;7.40;;;;;;;;;;5004080;28;20098;-78
2022/06/27 01:49:14;;;;;;;9.65;7.45;;;;;;;;;;4994205;28;20037;-77
2022/06/27 01:51:40;;;;;;;9.65;7.13;;;;;;;;;;4993461;28;20028;-78
2022/06/27 01:54:10;;;;;;;9.68;6.95;;;;;;;;;;5004566;28;20026;-78
2022/06/27 01:56:36;;;;;;;8.25;7.28;;;;;;;;;;4995606;28;20026;-78
2022/06/27 01:59:02;;;;;;;9.40;7.25;;;;;;;;;;4994083;28;20392;-78
2022/06/27 02:01:29;;;;;;;8.15;7.05;;;;;;;;;;4993151;28;20489;-78
2022/06/27 02:03:56;;;;;;;7.63;6.47;;;;;;;;;;5009655;28;20084;-78
2022/06/27 02:06:22;;;;;;;7.97;6.78;;;;;;;;;;5013280;28;20041;-78
2022/06/27 02:08:51;;;;;;;7.95;6.47;;;;;;;;;;5003039;28;20110;-77
2022/06/27 02:11:17;;;;;;;7.93;6.22;;;;;;;;;;4992307;28;20105;-78
2022/06/27 02:13:43;;;;;;;8.02;6.38;;;;;;;;;;5007514;28;20026;-79
2022/06/27 02:16:11;;;;;;;7.35;5.88;;;;;;;;;;5012789;28;20033;-77
2022/06/27 02:18:37;;;;;;;8.05;6.10;;;;;;;;;;5005156;28;20034;-78
2022/06/27 02:21:03;;;;;;;7.00;5.63;;;;;;;;;;4993567;28;20026;-78
2022/06/27 02:23:29;;;;;;;8.75;6.28;;;;;;;;;;5006473;28;20030;-79
2022/06/27 02:25:56;;;;;;;7.70;6.38;;;;;;;;;;5010337;28;20041;-78
2022/06/27 02:28:23;;;;;;;8.23;6.50;;;;;;;;;;5013031;28;20018;-77
2022/06/27 02:30:49;;;;;;;8.18;6.22;;;;;;;;;;5004181;28;20018;-78
2022/06/27 02:33:16;;;;;;;8.70;6.70;;;;;;;;;;5003566;28;20033;-78
2022/06/27 02:35:43;;;;;;;8.90;6.85;;;;;;;;;;5010521;28;20069;-78
2022/06/27 02:38:10;;;;;;;8.50;6.60;;;;;;;;;;5000975;28;20150;-78
2022/06/27 02:40:40;;;;;;;8.63;6.10;;;;;;;;;;4991641;28;21011;-78
2022/06/27 02:43:13;;;;;;;8.30;6.30;;;;;;;;;;4992320;28;20408;-78
2022/06/27 02:45:40;;;;;;;7.95;5.82;;;;;;;;;;4993134;28;20030;-78
2022/06/27 02:48:07;;;;;;;7.03;6.00;;;;;;;;;;4996443;28;20054;-78
2022/06/27 02:50:35;;;;;;;7.60;6.18;;;;;;;;;;5012535;28;20080;-77
2022/06/27 02:53:03;;;;;;;7.35;5.90;;;;;;;;;;4994616;28;20026;-78
2022/06/27 02:55:32;;;;;;;8.13;6.80;;;;;;;;;;4992041;28;20022;-77
2022/06/27 02:58:10;;;;;;;9.93;6.10;;;;;;;;;;4995402;28;20060;-78
2022/06/27 03:00:39;;;;;;;8.50;6.53;;;;;;;;;;5012371;28;20028;-78
2022/06/27 03:03:06;;;;;;;9.55;6.35;;;;;;;;;;5002323;28;20030;-78
2022/06/27 03:05:33;;;;;;;8.15;6.47;;;;;;;;;;5005313;28;20031;-78
2022/06/27 03:07:59;;;;;;;6.90;5.57;;;;;;;;;;4990976;28;20031;-81
2022/06/27 03:10:25;;;;;;;8.75;6.60;;;;;;;;;;4999880;28;20037;-77
2022/06/27 03:12:51;;;;;;;8.85;6.38;;;;;;;;;;4992032;28;20035;-77
2022/06/27 03:15:17;;;;;;;8.82;6.50;;;;;;;;;;4991855;28;20035;-78
2022/06/27 03:17:43;;;;;;;8.23;6.18;;;;;;;;;;4980150;28;20033;-77
2022/06/27 03:20:09;;;;;;;7.80;5.95;;;;;;;;;;5012053;28;20022;-78
2022/06/27 03:22:35;;;;;;;7.55;6.25;;;;;;;;;;4996542;28;20042;-78
2022/06/27 03:25:01;;;;;;;9.20;5.97;;;;;;;;;;4989588;28;20034;-78
2022/06/27 03:27:27;;;;;;;8.00;5.80;;;;;;;;;;4990223;28;20109;-77
2022/06/27 03:29:53;;;;;;;7.43;5.72;;;;;;;;;;4987107;28;20065;-78
2022/06/27 03:32:19;;;;;;;7.75;6.13;;;;;;;;;;4989319;28;20030;-76
2022/06/27 03:34:45;;;;;;;9.48;6.57;;;;;;;;;;5011663;28;20046;-78
2022/06/27 03:37:11;;;;;;;11.38;6.40;;;;;;;;;;5001419;28;20105;-78
2022/06/27 03:39:37;;;;;;;7.80;6.15;;;;;;;;;;4991917;28;20026;-78
2022/06/27 03:42:04;;;;;;;7.43;5.80;;;;;;;;;;4997655;28;20022;-77
2022/06/27 03:44:30;;;;;;;8.77;6.50;;;;;;;;;;4991378;28;20041;-78
2022/06/27 03:46:56;;;;;;;7.68;6.00;;;;;;;;;;4989975;28;20377;-78
2022/06/27 03:52:06;;;;;;;7.97;6.50;;;;;;;;;;4989316;28;20093;-78
2022/06/27 03:54:32;;;;;;;9.63;6.30;;;;;;;;;;4987417;28;20043;-78
2022/06/27 03:56:59;;;;;;;9.23;5.95;;;;;;;;;;4995207;28;20033;-78
2022/06/27 03:59:24;;;;;;;13.95;7.00;;;;;;;;;;4990647;28;20027;-78
2022/06/27 04:01:50;;;;;;;7.20;5.45;;;;;;;;;;4991854;28;20027;-77
2022/06/27 04:04:16;;;;;;;9.57;6.30;;;;;;;;;;5001162;28;20451;-78
2022/06/27 04:06:43;;;;;;;9.35;6.47;;;;;;;;;;4995817;28;20032;-77
2022/06/27 04:09:09;;;;;;;12.07;6.75;;;;;;;;;;5004672;28;20025;-77
2022/06/27 04:11:35;;;;;;;10.70;6.35;;;;;;;;;;4990864;28;20022;-78
2022/06/27 04:14:01;;;;;;;10.15;6.63;;;;;;;;;;4997085;28;20565;-78
2022/06/27 04:16:27;;;;;;;8.68;6.18;;;;;;;;;;4972474;28;20030;-78
2022/06/27 04:18:54;;;;;;;7.63;6.03;;;;;;;;;;4988718;28;20041;-77
2022/06/27 04:21:20;;;;;;;10.15;6.50;;;;;;;;;;5004713;28;20049;-77
2022/06/27 04:23:46;;;;;;;8.52;6.20;;;;;;;;;;4989581;28;20105;-78
2022/06/27 04:26:12;;;;;;;8.43;5.97;;;;;;;;;;4987763;28;20023;-78
2022/06/27 04:28:38;;;;;;;9.73;6.10;;;;;;;;;;4974374;28;20126;-78
2022/06/27 04:31:05;;;;;;;9.40;5.90;;;;;;;;;;5000445;28;20094;-76
2022/06/27 04:33:31;;;;;;;7.82;5.63;;;;;;;;;;5003145;28;20034;-76
2022/06/27 04:36:00;;;;;;;8.63;6.40;;;;;;;;;;4989411;28;20032;-76
2022/06/27 04:38:26;;;;;;;7.75;6.25;;;;;;;;;;4991120;28;20046;-76
2022/06/27 04:40:52;;;;;;;8.75;5.85;;;;;;;;;;4997584;28;20026;-76
2022/06/27 04:43:19;;;;;;;9.68;6.32;;;;;;;;;;4995526;28;20076;-76
2022/06/27 04:45:45;;;;;;;9.90;6.90;;;;;;;;;;4992867;28;20033;-75
2022/06/27 04:48:12;;;;;;;9.50;6.60;;;;;;;;;;4991752;28;20034;-76
2022/06/27 04:50:38;;;;;;;8.60;6.50;;;;;;;;;;4990767;28;20040;-79
2022/06/27 04:53:05;;;;;;;8.40;6.05;;;;;;;;;;4994650;28;20109;-77
2022/06/27 04:55:31;;;;;;;8.35;5.80;;;;;;;;;;4994205;28;20117;-78
2022/06/27 04:57:57;;;;;;;7.45;6.13;;;;;;;;;;4993940;28;20037;-77
2022/06/27 05:00:24;;;;;;;8.18;6.28;;;;;;;;;;4990973;28;20033;-78
2022/06/27 05:02:50;;;;;;;7.78;6.03;;;;;;;;;;4993841;28;20092;-78
2022/06/27 05:05:16;;;;;;;8.65;6.30;;;;;;;;;;4993832;28;20117;-77
2022/06/27 05:07:43;;;;;;;7.78;6.20;;;;;;;;;;4995046;28;20153;-80
2022/06/27 05:10:09;;;;;;;8.40;6.00;;;;;;;;;;4985877;28;20018;-77
2022/06/27 05:12:36;;;;;;;7.43;5.82;;;;;;;;;;4993052;28;20035;-78
2022/06/27 05:15:02;;;;;;;8.38;6.22;;;;;;;;;;4991650;28;20077;-78
2022/06/27 05:17:28;;;;;;;8.43;6.18;;;;;;;;;;4994811;28;20157;-77
2022/06/27 05:19:54;;;;;;;7.97;6.38;;;;;;;;;;4993905;28;20041;-78
2022/06/27 05:22:20;;;;;;;8.60;5.75;;;;;;;;;;4994248;28;20034;-78
2022/06/27 05:24:48;;;;;;;11.35;6.32;;;;;;;;;;4995893;28;20026;-78
2022/06/27 05:27:15;;;;;;;7.40;5.45;;;;;;;;;;4994644;28;20022;-79
2022/06/27 05:29:41;;;;;;;8.10;5.88;;;;;;;;;;4996411;28;20590;-78
2022/06/27 05:32:09;;;;;;;7.30;5.90;;;;;;;;;;4999219;28;20025;-78
2022/06/27 05:34:35;;;;;;;7.15;5.25;;;;;;;;;;4992390;28;20042;-76
2022/06/27 05:37:03;;;;;;;8.63;5.72;;;;;;;;;;4994849;28;20101;-76
2022/06/27 05:39:29;;;;;;;7.03;5.28;;;;;;;;;;4993749;28;20018;-76
2022/06/27 05:41:56;;;;;;;7.05;5.40;;;;;;;;;;4995198;28;20027;-76
2022/06/27 05:44:24;;;;;;;6.45;5.50;;;;;;;;;;5014226;28;20031;-76
2022/06/27 05:46:50;;;;;;;7.70;5.38;;;;;;;;;;4992879;28;20488;-80
2022/06/27 05:49:17;;;;;;;7.10;5.38;;;;;;;;;;4996832;28;20042;-77
2022/06/27 05:51:44;;;;;;;7.28;4.97;;;;;;;;;;5003466;28;20034;-78
2022/06/27 05:54:10;;;;;;;8.18;4.80;;;;;;;;;;4988693;28;20022;-78
2022/06/27 05:56:36;;;;;;;6.32;5.10;;;;;;;;;;4992281;28;20037;-79
2022/06/27 05:59:04;;;;;;;6.35;4.93;;;;;;;;;;4993729;28;20029;-78
2022/06/27 06:01:30;;;;;;;6.88;5.20;;;;;;;;;;5005877;28;20026;-78
2022/06/27 06:03:56;;;;;;;6.28;5.18;;;;;;;;;;5011533;28;20051;-77
2022/06/27 06:06:24;;;;;;;6.57;5.22;;;;;;;;;;5013574;28;20034;-79
2022/06/27 06:08:50;;;;;;;7.90;5.35;;;;;;;;;;5013619;28;20435;-78
2022/06/27 06:11:16;;;;;;;6.75;4.88;;;;;;;;;;4999041;28;20491;-79
2022/06/27 06:13:43;;;;;;;7.28;5.68;;;;;;;;;;4993348;28;20060;-79
2022/06/27 06:16:09;;;;;;;8.90;5.40;;;;;;;;;;5009219;28;20037;-79
2022/06/27 06:18:35;;;;;;;9.77;5.65;;;;;;;;;;5011854;28;20136;-79
2022/06/27 06:21:02;;;;;;;8.73;5.65;;;;;;;;;;5009002;28;20532;-78
2022/06/27 06:23:28;;;;;;;6.63;4.82;;;;;;;;;;5010106;28;20054;-78
2022/06/27 06:25:54;;;;;;;7.75;5.20;;;;;;;;;;4989926;28;20034;-78
2022/06/27 06:28:21;;;;;;;7.68;5.20;;;;;;;;;;4992869;28;20026;-77
2022/06/27 06:30:47;;;;;;;8.50;5.05;;;;;;;;;;5012310;28;20022;-79
2022/06/27 06:33:14;;;;;;;6.00;5.10;;;;;;;;;;5013087;28;20389;-77
2022/06/27 06:35:40;;;;;;;7.03;4.88;;;;;;;;;;5009978;28;20671;-79
2022/06/27 06:38:08;;;;;;;7.10;4.60;;;;;;;;;;5011781;28;20377;-78
2022/06/27 06:40:34;;;;;;;7.38;4.57;;;;;;;;;;5009405;28;20033;-77
2022/06/27 06:43:01;;;;;;;7.25;4.65;;;;;;;;;;5012744;28;20395;-78
2022/06/27 06:45:27;;;;;;;7.65;4.93;;;;;;;;;;5012938;28;20050;-79
2022/06/27 06:47:54;;;;;;;6.30;4.53;;;;;;;;;;5010675;28;20030;-78
2022/06/27 06:50:20;;;;;;;6.40;4.28;;;;;;;;;;5011050;28;20014;-79
2022/06/27 06:52:49;;;;;;;7.18;4.72;;;;;;;;;;5012772;28;20384;-79
2022/06/27 06:55:16;;;;;;;6.25;4.30;;;;;;;;;;4984257;28;20077;-77
2022/06/27 06:57:42;;;;;;;5.45;4.20;;;;;;;;;;4984063;28;20049;-78
2022/06/27 07:00:09;;;;;;;7.55;4.80;;;;;;;;;;4992835;28;20026;-78
2022/06/27 07:02:36;;;;;;;5.90;4.78;;;;;;;;;;4992614;28;20034;-79
2022/06/27 07:05:04;;;;;;;7.95;4.57;;;;;;;;;;4996689;28;20648;-78
2022/06/27 07:07:32;;;;;;;6.45;5.03;;;;;;;;;;5012378;28;20094;-78
2022/06/27 07:09:58;;;;;;;6.22;4.65;;;;;;;;;;5001168;28;20061;-78
2022/06/27 07:12:25;;;;;;;6.45;5.20;;;;;;;;;;4992557;28;20089;-78
2022/06/27 07:14:54;;;;;;;6.13;4.47;;;;;;;;;;4991241;28;20021;-78
2022/06/27 07:17:24;;;;;;;7.45;4.55;;;;;;;;;;5003153;28;20029;-78
2022/06/27 07:19:52;;;;;;;7.75;5.10;;;;;;;;;;5010790;28;20026;-78
2022/06/27 07:22:19;;;;;;;8.35;4.90;;;;;;;;;;5012080;28;20092;-77
2022/06/27 07:24:47;;;;;;;7.72;4.90;;;;;;;;;;4999632;28;20022;-76
2022/06/27 07:27:14;;;;;;;7.68;4.97;;;;;;;;;;4991326;28;20033;-78
2022/06/27 07:29:40;;;;;;;7.05;5.10;;;;;;;;;;5000647;28;20021;-77
2022/06/27 07:32:08;;;;;;;7.25;4.43;;;;;;;;;;5012066;28;20075;-78
2022/06/27 07:34:34;;;;;;;8.23;4.90;;;;;;;;;;5011723;28;20038;-78
2022/06/27 07:37:00;;;;;;;6.50;4.30;;;;;;;;;;5010175;28;20768;-78
2022/06/27 07:39:26;;;;;;;5.85;4.60;;;;;;;;;;5010627;28;20030;-77
2022/06/27 07:41:53;;;;;;;6.80;4.68;;;;;;;;;;5011728;28;20038;-78
2022/06/27 07:44:19;;;;;;;7.00;4.93;;;;;;;;;;5011238;28;20030;-79
2022/06/27 07:46:45;;;;;;;6.45;5.47;;;;;;;;;;5011795;28;20029;-77
2022/06/27 07:49:11;;;;;;;5.57;4.35;;;;;;;;;;5011826;28;20455;-78
2022/06/27 07:51:37;;;;;;;5.82;4.68;;;;;;;;;;5007967;28;20026;-78
2022/06/27 07:54:03;;;;;;;6.93;4.80;;;;;;;;;;4983773;28;20046;-78
2022/06/27 07:56:29;;;;;;;7.25;5.13;;;;;;;;;;4988624;28;20118;-78
2022/06/27 07:58:55;;;;;;;7.32;4.63;;;;;;;;;;4992844;28;20092;-77
2022/06/27 08:01:23;;;;;;;6.47;4.20;;;;;;;;;;4991701;28;20038;-77
2022/06/27 08:03:49;;;;;;;6.78;4.38;;;;;;;;;;5003062;28;20037;-77
2022/06/27 08:06:15;;;;;;;6.78;4.22;;;;;;;;;;5005545;28;20038;-78
2022/06/27 08:08:45;;;;;;;6.03;4.10;;;;;;;;;;5001054;28;20026;-78
2022/06/27 08:11:13;;;;;;;7.72;4.43;;;;;;;;;;5011674;28;20041;-77
2022/06/27 08:13:40;;;;;;;5.85;4.40;;;;;;;;;;5011711;28;20021;-78
2022/06/27 08:16:08;;;;;;;6.72;4.50;;;;;;;;;;5013553;28;20041;-76
2022/06/27 08:18:38;;;;;;;7.40;4.38;;;;;;;;;;5012974;28;20049;-79
2022/06/27 08:21:05;;;;;;;7.35;4.80;;;;;;;;;;5015448;28;20022;-78
2022/06/27 08:23:31;;;;;;;5.93;4.30;;;;;;;;;;5011715;28;20109;-77
2022/06/27 08:25:59;;;;;;;7.25;4.72;;;;;;;;;;5009056;28;20108;-78
2022/06/27 08:28:26;;;;;;;6.55;4.70;;;;;;;;;;5014224;28;20026;-78
2022/06/27 08:30:53;;;;;;;5.53;4.35;;;;;;;;;;5015276;28;20152;-78
2022/06/27 08:33:19;;;;;;;6.25;4.80;;;;;;;;;;5015213;28;20117;-76
2022/06/27 08:35:50;;;;;;;6.50;4.82;;;;;;;;;;5012840;28;20120;-77
2022/06/27 08:38:19;;;;;;;6.35;4.22;;;;;;;;;;4998417;28;20378;-77
2022/06/27 08:40:46;;;;;;;7.30;4.78;;;;;;;;;;4995304;28;20026;-78
2022/06/27 08:43:14;;;;;;;7.13;4.40;;;;;;;;;;4995552;28;20061;-77
2022/06/27 08:45:43;;;;;;;6.75;5.40;;;;;;;;;;4995448;28;20026;-77
2022/06/27 08:48:10;;;;;;;6.88;4.43;;;;;;;;;;5008072;28;20054;-77
2022/06/27 08:50:37;;;;;;;6.28;4.85;;;;;;;;;;5010930;28;20523;-78
2022/06/27 08:53:03;;;;;;;5.68;4.43;;;;;;;;;;5015054;28;20040;-78
2022/06/27 08:55:31;;;;;;;7.50;4.63;;;;;;;;;;4995807;28;20037;-78
2022/06/27 08:58:05;;;;;;;5.80;4.13;;;;;;;;;;5004450;28;20047;-77
2022/06/27 09:00:37;;;;;;;7.50;4.10;;;;;;;;;;5012891;28;20030;-79
2022/06/27 09:03:06;;;;;;;6.85;3.88;;;;;;;;;;4993483;28;20030;-78
2022/06/27 09:05:33;;;;;;;6.55;3.90;;;;;;;;;;4995043;28;20416;-77
2022/06/27 09:08:04;;;;;;;5.30;4.28;;;;;;;;;;4994428;28;20081;-76
2022/06/27 09:10:31;;;;;;;6.15;3.97;;;;;;;;;;4994676;28;20026;-77
2022/06/27 09:12:59;;;;;;;5.97;3.90;;;;;;;;;;4994438;28;20511;-77
2022/06/27 09:15:48;;;;;;;7.43;3.90;;;;;;;;;;4994870;28;20105;-78
2022/06/27 09:18:25;;;;;;;9.55;4.13;;;;;;;;;;4991217;28;20022;-78
2022/06/27 09:20:58;;;;;;;4.85;3.83;;;;;;;;;;5014242;28;20026;-78
2022/06/27 09:23:28;;;;;;;8.35;4.50;;;;;;;;;;5011920;28;20025;-80
2022/06/27 09:25:58;;;;;;;5.88;4.00;;;;;;;;;;4994087;28;20473;-78
2022/06/27 09:28:37;;;;;;;5.75;3.95;;;;;;;;;;4994344;28;20084;-78
2022/06/27 09:31:03;;;;;;;5.60;4.00;;;;;;;;;;4994579;28;20097;-79
2022/06/27 09:33:31;;;;;;;5.25;3.97;;;;;;;;;;4994335;28;20110;-79
2022/06/27 09:35:57;;;;;;;7.78;4.22;;;;;;;;;;4993831;28;20045;-79
2022/06/27 09:38:25;;;;;;;6.82;4.18;;;;;;;;;;4993818;28;20034;-78
2022/06/27 09:40:51;;;;;;;7.07;4.00;;;;;;;;;;4988867;28;20054;-77
2022/06/27 09:43:19;;;;;;;6.15;3.90;;;;;;;;;;4975279;28;20034;-79
2022/06/27 09:45:46;;;;;;;7.90;5.03;;;;;;;;;;4987180;28;20034;-78
2022/06/27 09:48:13;;;;;;;7.03;4.45;;;;;;;;;;5005314;28;20037;-77
2022/06/27 09:50:40;;;;;;;5.63;3.90;;;;;;;;;;5014259;28;20010;-78
2022/06/27 09:53:06;;;;;;;5.93;3.97;;;;;;;;;;5012626;28;20033;-77
2022/06/27 09:55:32;;;;;;;7.28;4.10;;;;;;;;;;5013921;28;20030;-77
2022/06/27 09:58:00;;;;;;;7.70;4.28;;;;;;;;;;5009618;28;20038;-76
2022/06/27 10:00:26;;;;;;;6.15;4.00;;;;;;;;;;5013761;28;20404;-78
2022/06/27 10:02:53;;;;;;;5.40;3.95;;;;;;;;;;5013812;28;20030;-76
2022/06/27 10:05:20;;;;;;;5.68;3.95;;;;;;;;;;5013584;28;20022;-78
2022/06/27 10:08:02;;;;;;;6.28;4.22;;;;;;;;;;5012395;28;20488;-76
2022/06/27 10:10:29;;;;;;;7.00;3.92;;;;;;;;;;5010804;28;20536;-77
2022/06/27 10:12:57;;;;;;;7.38;4.00;;;;;;;;;;4980164;28;20458;-76
2022/06/27 10:15:25;;;;;;;6.45;4.25;;;;;;;;;;4974534;28;20110;-79
2022/06/27 10:17:53;;;;;;;6.15;3.97;;;;;;;;;;4989969;28;20389;-77
2022/06/27 10:20:29;;;;;;;6.30;4.13;;;;;;;;;;5013229;28;20041;-80
2022/06/27 10:23:04;;;;;;;5.00;3.75;;;;;;;;;;5013870;28;20049;-79
2022/06/27 10:25:30;;;;;;;5.65;3.90;;;;;;;;;;5013554;28;20109;-79
2022/06/27 10:28:09;;;;;;;5.43;3.88;;;;;;;;;;5010820;28;20117;-77
2022/06/27 10:30:39;;;;;;;6.15;4.28;;;;;;;;;;5007153;28;20033;-76
2022/06/27 10:33:24;;;;;;;6.68;3.95;;;;;;;;;;5007951;28;20023;-75
2022/06/27 10:35:59;;;;;;;6.05;4.13;;;;;;;;;;4993069;28;20584;-76
2022/06/27 10:38:28;;;;;;;5.95;4.15;;;;;;;;;;5001581;28;20576;-76
2022/06/27 10:40:55;;;;;;;7.40;4.38;;;;;;;;;;5006699;28;20493;-77
2022/06/27 10:43:36;;;;;;;7.57;4.00;;;;;;;;;;4993887;28;20077;-77
2022/06/27 10:46:11;;;;;;;6.03;3.75;;;;;;;;;;4993211;28;20019;-76
2022/06/27 10:48:47;;;;;;;7.40;3.95;;;;;;;;;;4992279;28;20037;-77
2022/06/27 10:51:30;;;;;;;6.18;3.38;;;;;;;;;;4992761;28;20031;-77
2022/06/27 10:54:04;;;;;;;5.60;4.30;;;;;;;;;;4993234;28;20452;-76
2022/06/27 10:56:47;;;;;;;5.57;4.20;;;;;;;;;;4993288;28;20124;-77
2022/06/27 10:59:17;;;;;;;5.03;3.80;;;;;;;;;;4992365;28;20026;-76
2022/06/27 11:01:52;;;;;;;6.65;3.97;;;;;;;;;;5005601;28;20033;-77
2022/06/27 11:04:28;;;;;;;6.40;3.95;;;;;;;;;;5011371;28;20033;-76
2022/06/27 11:06:59;;;;;;;5.07;3.60;;;;;;;;;;5012352;28;20058;-77
2022/06/27 11:09:37;;;;;;;5.30;3.60;;;;;;;;;;4995189;28;20451;-77
2022/06/27 11:12:04;;;;;;;5.38;3.88;;;;;;;;;;4994188;28;20117;-77
2022/06/27 11:14:30;;;;;;;5.50;3.88;;;;;;;;;;4992573;28;20014;-76
2022/06/27 11:16:56;;;;;;;6.40;4.28;;;;;;;;;;4993052;28;20568;-77
2022/06/27 11:22:21;;;;;;;7.72;3.90;;;;;;;;;;5012274;28;20056;-77
2022/06/27 11:24:48;;;;;;;6.18;3.83;;;;;;;;;;5012154;28;20628;-77
2022/06/27 11:27:15;;;;;;;8.05;4.25;;;;;;;;;;5008866;28;20496;-78
2022/06/27 11:32:27;;;;;;;7.15;3.83;;;;;;;;;;5012003;28;20064;-78
2022/06/27 11:34:54;;;;;;;6.63;3.83;;;;;;;;;;5012176;28;20096;-78
2022/06/27 11:37:22;;;;;;;5.70;3.70;;;;;;;;;;5005804;28;20024;-77
2022/06/27 11:39:58;;;;;;;6.25;4.22;;;;;;;;;;4992893;28;20499;-78
2022/06/27 11:42:28;;;;;;;6.00;4.10;;;;;;;;;;4992255;28;20027;-77
2022/06/27 11:45:09;;;;;;;7.57;3.78;;;;;;;;;;4992138;28;20023;-77
2022/06/27 11:47:36;;;;;;;5.90;3.92;;;;;;;;;;4991887;28;20022;-79
2022/06/27 11:50:02;;;;;;;7.45;4.28;;;;;;;;;;5002234;28;20553;-79
2022/06/27 11:52:35;;;;;;;8.15;4.00;;;;;;;;;;5004553;28;20018;-80
2022/06/27 11:55:09;;;;;;;5.50;3.88;;;;;;;;;;4997839;28;20030;-78
2022/06/27 11:57:36;;;;;;;5.65;3.88;;;;;;;;;;5007689;28;20137;-78
2022/06/27 12:00:05;;;;;;;5.32;3.53;;;;;;;;;;5016704;28;20014;-80
2022/06/27 12:02:34;;;;;;;5.80;3.60;;;;;;;;;;5014582;28;20072;-79
2022/06/27 12:05:26;;;;;;;8.52;4.55;;;;;;;;;;5016370;28;20109;-80
2022/06/27 12:07:52;;;;;;;;;;;;;;;;;;5008831;28;20046;-79
2022/06/27 12:10:39;;;;;;;6.07;3.78;;;;;;;;;;4997181;28;20001;-79
2022/06/27 12:13:10;;;;;;;7.13;4.20;;;;;;;;;;4997603;28;20066;-78
2022/06/27 12:15:36;;;;;;;7.53;3.90;;;;;;;;;;4996317;28;20085;-78
2022/06/27 12:18:03;;;;;;;7.15;4.00;;;;;;;;;;5006830;28;20084;-79
2022/06/27 12:20:30;;;;;;;7.55;3.45;;;;;;;;;;5016544;28;20030;-77
2022/06/27 12:22:56;;;;;;;6.22;3.50;;;;;;;;;;5001591;28;20039;-79
2022/06/27 12:25:22;;;;;;;5.18;3.65;;;;;;;;;;4996445;28;20027;-78
2022/06/27 12:27:49;;;;;;;6.07;3.47;;;;;;;;;;4999352;28;20080;-79
2022/06/27 12:30:15;;;;;;;6.93;3.65;;;;;;;;;;5015705;28;20377;-78
2022/06/27 12:32:42;;;;;;;6.53;3.92;;;;;;;;;;5016852;28;20072;-80
2022/06/27 12:35:08;;;;;;;7.07;3.85;;;;;;;;;;5017463;28;20112;-79
2022/06/27 12:37:35;;;;;;;6.80;3.60;;;;;;;;;;5012840;28;20442;-80
2022/06/27 12:40:02;;;;;;;7.90;3.72;;;;;;;;;;5015662;28;20053;-78
2022/06/27 12:42:28;;;;;;;6.30;3.70;;;;;;;;;;5015355;28;20018;-79
2022/06/27 12:44:54;;;;;;;6.28;4.13;;;;;;;;;;5016261;28;20033;-81
2022/06/27 12:47:20;;;;;;;6.38;3.63;;;;;;;;;;5010350;28;20721;-78
2022/06/27 12:49:46;;;;;;;6.20;4.00;;;;;;;;;;4995235;28;20027;-80
2022/06/27 12:52:12;;;;;;;6.63;3.80;;;;;;;;;;4996187;28;20022;-79
2022/06/27 12:54:41;;;;;;;6.40;3.63;;;;;;;;;;4996510;28;20022;-77
2022/06/27 12:57:07;;;;;;;5.70;3.58;;;;;;;;;;5009516;28;20100;-80
2022/06/27 12:59:34;;;;;;;5.85;3.60;;;;;;;;;;5004641;28;20057;-79
2022/06/27 13:02:00;;;;;;;7.15;3.90;;;;;;;;;;4995420;28;20400;-79
2022/06/27 13:04:26;;;;;;;6.13;4.00;;;;;;;;;;4997664;28;20073;-79
2022/06/27 13:06:52;;;;;;;7.75;3.83;;;;;;;;;;4997523;28;20034;-80
2022/06/27 13:09:18;;;;;;;4.95;3.33;;;;;;;;;;4999631;28;20018;-79
2022/06/27 13:11:44;;;;;;;6.90;3.58;;;;;;;;;;5015994;28;20085;-80
2022/06/27 13:14:11;;;;;;;5.80;3.72;;;;;;;;;;5019791;28;20115;-79
2022/06/27 13:16:37;;;;;;;5.93;3.70;;;;;;;;;;5019441;28;20030;-79
2022/06/27 13:19:03;;;;;;;8.27;4.00;;;;;;;;;;5002854;28;20030;-80
2022/06/27 13:21:29;;;;;;;5.95;3.58;;;;;;;;;;4995777;28;20114;-79
2022/06/27 13:23:55;;;;;;;5.70;3.75;;;;;;;;;;5007946;28;20476;-79
2022/06/27 13:26:21;;;;;;;6.35;3.97;;;;;;;;;;4999774;28;20026;-80
2022/06/27 13:28:47;;;;;;;6.20;3.80;;;;;;;;;;4995776;28;20555;-80
2022/06/27 13:31:13;;;;;;;7.07;3.70;;;;;;;;;;5000372;28;20045;-80
2022/06/27 13:33:39;;;;;;;7.07;3.63;;;;;;;;;;4999639;28;20113;-79
2022/06/27 13:36:05;;;;;;;7.68;3.70;;;;;;;;;;4999006;28;20042;-77
2022/06/27 13:38:32;;;;;;;5.85;3.45;;;;;;;;;;5002217;28;20037;-78
2022/06/27 13:40:58;;;;;;;7.40;3.58;;;;;;;;;;5000339;28;20062;-79
2022/06/27 13:43:24;;;;;;;6.90;3.70;;;;;;;;;;5000036;28;20106;-80
2022/06/27 13:45:50;;;;;;;6.60;3.97;;;;;;;;;;5013025;28;20026;-78
2022/06/27 13:48:16;;;;;;;7.35;3.92;;;;;;;;;;5002430;28;20109;-79
2022/06/27 13:50:43;;;;;;;7.28;4.47;;;;;;;;;;5003754;28;20046;-81
2022/06/27 13:53:09;;;;;;;5.30;3.75;;;;;;;;;;5004221;28;20026;-81
2022/06/27 13:55:36;;;;;;;5.88;3.75;;;;;;;;;;5007786;28;20023;-79
2022/06/27 13:58:04;;;;;;;5.95;3.60;;;;;;;;;;5004982;28;20030;-83
2022/06/27 14:00:30;;;;;;;6.82;3.85;;;;;;;;;;4999733;28;20085;-80
2022/06/27 14:02:56;;;;;;;6.45;3.28;;;;;;;;;;5000852;28;20041;-81
2022/06/27 14:05:22;;;;;;;6.68;3.58;;;;;;;;;;5019087;28;20056;-81
2022/06/27 14:07:48;;;;;;;5.97;3.63;;;;;;;;;;5017598;28;20046;-80
2022/06/27 14:10:16;;;;;;;5.38;3.55;;;;;;;;;;5001892;28;20030;-76
2022/06/27 14:12:42;;;;;;;6.75;3.45;;;;;;;;;;4996789;28;20026;-78
2022/06/27 14:15:09;;;;;;;6.15;3.65;;;;;;;;;;5001531;28;20026;-78
2022/06/27 14:17:35;;;;;;;6.72;4.25;;;;;;;;;;4996865;28;20073;-77
2022/06/27 14:20:01;;;;;;;6.97;3.83;;;;;;;;;;4987283;28;20022;-78
2022/06/27 14:22:28;;;;;;;7.45;3.80;;;;;;;;;;4995207;28;20057;-77
2022/06/27 14:24:54;;;;;;;7.20;3.75;;;;;;;;;;5012906;28;20026;-80
2022/06/27 14:27:20;;;;;;;6.72;3.80;;;;;;;;;;5013140;28;20098;-79
2022/06/27 14:29:46;;;;;;;5.25;3.50;;;;;;;;;;4999025;28;20015;-79
2022/06/27 14:32:12;;;;;;;7.28;3.90;;;;;;;;;;4996926;28;20019;-82
2022/06/27 14:34:38;;;;;;;6.53;3.75;;;;;;;;;;5001523;28;20046;-79
2022/06/27 14:37:04;;;;;;;6.28;3.83;;;;;;;;;;4999396;28;20034;-78
2022/06/27 14:39:31;;;;;;;6.93;3.97;;;;;;;;;;4995247;28;20032;-80
2022/06/27 14:41:57;;;;;;;6.93;4.00;;;;;;;;;;4993498;28;20499;-80
2022/06/27 14:44:23;;;;;;;8.65;4.50;;;;;;;;;;4990527;28;20043;-80
2022/06/27 14:46:51;;;;;;;6.10;3.75;;;;;;;;;;4996605;28;20029;-80
2022/06/27 14:49:17;;;;;;;8.10;3.90;;;;;;;;;;5008166;28;20022;-80
2022/06/27 14:51:43;;;;;;;7.22;4.05;;;;;;;;;;4997062;28;20052;-79
2022/06/27 14:54:10;;;;;;;7.15;4.35;;;;;;;;;;5003618;28;20041;-79